Time;durP1;ratioP1;P1;durP2;ratioP2;P2;SDS_P1;SDS_P2;PMS_P1;PMS_P2;Temp;Humidity;BMP_temperature;BMP_pressure;BME280_temperature;BME280_humidity;BME280_pressure;Samples;Min_cycle;Max_cycle;Signal;HPM_P1;HPM_P2
2024/04/17 00:00:24;;;;;;;;;;;;;;;;;;5488560;26;19960;-74
2024/04/17 00:02:50;;;;;;;;;;;;;;;;;;5488070;26;19929;-74
2024/04/17 00:05:16;;;;;;;;;;;;;;;;;;5488524;26;19931;-74
2024/04/17 00:07:42;;;;;;;;;;;;;;;;;;5490440;26;19935;-74
2024/04/17 00:10:08;;;;;;;;;;;;;;;;;;5489883;26;19994;-74
2024/04/17 00:12:34;;;;;;;;;;;;;;;;;;5490313;26;19928;-75
2024/04/17 00:15:00;;;;;;;;;;;;;;;;;;5490325;26;20356;-74
2024/04/17 00:17:26;;;;;;;;;;;;;;;;;;5490030;26;20432;-75
2024/04/17 00:19:52;;;;;;;;;;;;;;;;;;5490142;26;19928;-74
2024/04/17 00:22:17;;;;;;;;;;;;;;;;;;5490086;26;19977;-74
2024/04/17 00:24:43;;;;;;;;;;;;;;;;;;5489677;26;19939;-74
2024/04/17 00:27:09;;;;;;;;;;;;;;;;;;5490120;26;19928;-73
2024/04/17 00:29:35;;;;;;;;;;;;;;;;;;5488211;26;19940;-74
2024/04/17 00:32:01;;;;;;;;;;;;;;;;;;5489635;26;20264;-74
2024/04/17 00:34:27;;;;;;;;;;;;;;;;;;5489877;26;19928;-75
2024/04/17 00:36:53;;;;;;;;;;;;;;;;;;5489993;26;19935;-75
2024/04/17 00:39:19;;;;;;;;;;;;;;;;;;5489314;26;19935;-75
2024/04/17 00:41:45;;;;;;;;;;;;;;;;;;5489839;26;19935;-74
2024/04/17 00:44:11;;;;;;;;;;;;;;;;;;5489754;26;20260;-74
2024/04/17 00:46:37;;;;;;;;;;;;;;;;;;5490810;26;19927;-75
2024/04/17 00:49:03;;;;;;;;;;;;;;;;;;5493503;26;19930;-74
2024/04/17 00:51:29;;;;;;;;;;;;;;;;;;5492937;26;19935;-75
2024/04/17 00:53:55;;;;;;;;;;;;;;;;;;5493252;26;19996;-75
2024/04/17 00:56:21;;;;;;;;;;;;;;;;;;5491451;26;19964;-75
2024/04/17 00:58:47;;;;;;;;;;;;;;;;;;5492623;26;20661;-73
2024/04/17 01:01:13;;;;;;;;;;;;;;;;;;5492881;26;19928;-74
2024/04/17 01:03:39;;;;;;;;;;;;;;;;;;5493039;26;19934;-74
2024/04/17 01:06:05;;;;;;;;;;;;;;;;;;5492559;26;20003;-74
2024/04/17 01:08:31;;;;;;;;;;;;;;;;;;5492857;26;19934;-75
2024/04/17 01:10:56;;;;;;;;;;;;;;;;;;5491024;26;19943;-74
2024/04/17 01:13:22;;;;;;;;;;;;;;;;;;5492295;26;19936;-75
2024/04/17 01:15:48;;;;;;;;;;;;;;;;;;5492922;26;19935;-74
2024/04/17 01:18:14;;;;;;;;;;;;;;;;;;5490847;26;20364;-74
2024/04/17 01:20:40;;;;;;;;;;;;;;;;;;5492245;26;20343;-74
2024/04/17 01:23:06;;;;;;;;;;;;;;;;;;5492652;26;20267;-74
2024/04/17 01:25:32;;;;;;;;;;;;;;;;;;5492564;26;19928;-74
2024/04/17 01:27:58;;;;;;;;;;;;;;;;;;5492273;26;20260;-73
2024/04/17 01:30:24;;;;;;;;;;;;;;;;;;5492618;26;19954;-73
2024/04/17 01:32:50;;;;;;;;;;;;;;;;;;5492729;26;20333;-73
2024/04/17 01:35:16;;;;;;;;;;;;;;;;;;5492053;26;19928;-74
2024/04/17 01:37:42;;;;;;;;;;;;;;;;;;5492427;26;19935;-75
2024/04/17 01:40:08;;;;;;;;;;;;;;;;;;5492424;26;19928;-74
2024/04/17 01:42:34;;;;;;;;;;;;;;;;;;5492013;26;19936;-74
2024/04/17 01:45:00;;;;;;;;;;;;;;;;;;5490434;26;19935;-74
2024/04/17 01:47:26;;;;;;;;;;;;;;;;;;5492385;26;20360;-74
2024/04/17 01:49:52;;;;;;;;;;;;;;;;;;5491870;26;19973;-74
2024/04/17 01:52:18;;;;;;;;;;;;;;;;;;5492213;26;19932;-74
2024/04/17 01:54:43;;;;;;;;;;;;;;;;;;5490207;26;20380;-74
2024/04/17 01:57:09;;;;;;;;;;;;;;;;;;5490159;26;20352;-74
2024/04/17 01:59:35;;;;;;;;;;;;;;;;;;5491862;26;20324;-74
2024/04/17 02:02:01;;;;;;;;;;;;;;;;;;5491701;26;20000;-73
2024/04/17 02:04:27;;;;;;;;;;;;;;;;;;5490127;26;19944;-73
2024/04/17 02:06:53;;;;;;;;;;;;;;;;;;5492052;26;19928;-73
2024/04/17 02:09:19;;;;;;;;;;;;;;;;;;5489676;26;20359;-74
2024/04/17 02:11:45;;;;;;;;;;;;;;;;;;5491936;26;20332;-74
2024/04/17 02:14:11;;;;;;;;;;;;;;;;;;5489952;26;19956;-73
2024/04/17 02:16:37;;;;;;;;;;;;;;;;;;5489626;26;19955;-73
2024/04/17 02:19:03;;;;;;;;;;;;;;;;;;5489999;26;19934;-73
2024/04/17 02:21:29;;;;;;;;;;;;;;;;;;5489946;26;20355;-74
2024/04/17 02:23:55;;;;;;;;;;;;;;;;;;5491297;26;19960;-73
2024/04/17 02:26:21;;;;;;;;;;;;;;;;;;5491839;26;20360;-74
2024/04/17 02:28:47;;;;;;;;;;;;;;;;;;5491638;26;19928;-73
2024/04/17 02:31:13;;;;;;;;;;;;;;;;;;5489449;26;20000;-73
2024/04/17 02:33:39;;;;;;;;;;;;;;;;;;5491633;26;19939;-73
2024/04/17 02:36:05;;;;;;;;;;;;;;;;;;5491565;26;19934;-74
2024/04/17 02:38:31;;;;;;;;;;;;;;;;;;5491223;26;19928;-74
2024/04/17 02:40:56;;;;;;;;;;;;;;;;;;5491450;26;19935;-74
2024/04/17 02:43:22;;;;;;;;;;;;;;;;;;5491721;26;19931;-75
2024/04/17 02:45:48;;;;;;;;;;;;;;;;;;5490963;26;19936;-73
2024/04/17 02:48:14;;;;;;;;;;;;;;;;;;5491314;26;20367;-73
2024/04/17 02:50:40;;;;;;;;;;;;;;;;;;5489582;26;19939;-74
2024/04/17 02:53:06;;;;;;;;;;;;;;;;;;5490865;26;19935;-74
2024/04/17 02:55:32;;;;;;;;;;;;;;;;;;5491477;26;19928;-74
2024/04/17 02:57:58;;;;;;;;;;;;;;;;;;5491316;26;20012;-74
2024/04/17 03:00:24;;;;;;;;;;;;;;;;;;5490666;26;19928;-73
2024/04/17 03:02:50;;;;;;;;;;;;;;;;;;5491474;26;19928;-73
2024/04/17 03:05:16;;;;;;;;;;;;;;;;;;5490967;26;20253;-73
2024/04/17 03:07:44;;;;;;;;;;;;;;;;;;5489501;26;19928;-73
2024/04/17 03:10:10;;;;;;;;;;;;;;;;;;5490572;26;19968;-73
2024/04/17 03:12:36;;;;;;;;;;;;;;;;;;5491040;26;20260;-73
2024/04/17 03:15:02;;;;;;;;;;;;;;;;;;5491378;26;19935;-73
2024/04/17 03:17:28;;;;;;;;;;;;;;;;;;5491197;26;19928;-73
2024/04/17 03:19:54;;;;;;;;;;;;;;;;;;5490831;26;19944;-73
2024/04/17 03:22:20;;;;;;;;;;;;;;;;;;5491309;26;19934;-73
2024/04/17 03:24:46;;;;;;;;;;;;;;;;;;5491098;26;19928;-73
2024/04/17 03:27:12;;;;;;;;;;;;;;;;;;5490821;26;20273;-73
2024/04/17 03:29:38;;;;;;;;;;;;;;;;;;5491159;26;20006;-73
2024/04/17 03:32:03;;;;;;;;;;;;;;;;;;5490950;26;19928;-73
2024/04/17 03:34:29;;;;;;;;;;;;;;;;;;5488806;26;19950;-73
2024/04/17 03:36:55;;;;;;;;;;;;;;;;;;5491057;26;20363;-73
2024/04/17 03:39:21;;;;;;;;;;;;;;;;;;5490779;26;19927;-73
2024/04/17 03:41:47;;;;;;;;;;;;;;;;;;5488643;26;19928;-73
2024/04/17 03:44:13;;;;;;;;;;;;;;;;;;5490861;26;19928;-73
2024/04/17 03:46:40;;;;;;;;;;;;;;;;;;5489044;26;19939;-73
2024/04/17 03:49:05;;;;;;;;;;;;;;;;;;5490330;26;19943;-73
2024/04/17 03:51:31;;;;;;;;;;;;;;;;;;5490715;26;20261;-74
2024/04/17 03:53:57;;;;;;;;;;;;;;;;;;5488759;26;20021;-73
2024/04/17 03:56:23;;;;;;;;;;;;;;;;;;5490190;26;19939;-73
2024/04/17 03:58:49;;;;;;;;;;;;;;;;;;5490360;26;19997;-73
2024/04/17 04:01:15;;;;;;;;;;;;;;;;;;5490283;26;19935;-73
2024/04/17 04:03:41;;;;;;;;;;;;;;;;;;5489772;26;20365;-72
2024/04/17 04:06:07;;;;;;;;;;;;;;;;;;5488393;26;19928;-73
2024/04/17 04:08:33;;;;;;;;;;;;;;;;;;5489660;26;19935;-73
2024/04/17 04:10:59;;;;;;;;;;;;;;;;;;5490023;26;19935;-73
2024/04/17 04:13:25;;;;;;;;;;;;;;;;;;5488115;26;19931;-75
2024/04/17 04:15:51;;;;;;;;;;;;;;;;;;5489487;26;19936;-75
2024/04/17 04:18:17;;;;;;;;;;;;;;;;;;5489891;26;19928;-75
2024/04/17 04:20:43;;;;;;;;;;;;;;;;;;5490043;26;19927;-74
2024/04/17 04:23:09;;;;;;;;;;;;;;;;;;5493051;26;19928;-75
2024/04/17 04:25:35;;;;;;;;;;;;;;;;;;5493632;26;20375;-74
2024/04/17 04:28:01;;;;;;;;;;;;;;;;;;5493469;26;20257;-75
2024/04/17 04:30:27;;;;;;;;;;;;;;;;;;5491182;26;19939;-74
2024/04/17 04:32:53;;;;;;;;;;;;;;;;;;5493531;26;19928;-74
2024/04/17 04:35:19;;;;;;;;;;;;;;;;;;5493328;26;19935;-75
2024/04/17 04:37:45;;;;;;;;;;;;;;;;;;5493036;26;19928;-75
2024/04/17 04:40:11;;;;;;;;;;;;;;;;;;5493218;26;20383;-74
2024/04/17 04:42:37;;;;;;;;;;;;;;;;;;5491172;26;19928;-74
2024/04/17 04:45:03;;;;;;;;;;;;;;;;;;5492826;26;19940;-75
2024/04/17 04:47:29;;;;;;;;;;;;;;;;;;5493165;26;20261;-74
2024/04/17 04:49:55;;;;;;;;;;;;;;;;;;5491266;26;19928;-75
2024/04/17 04:52:21;;;;;;;;;;;;;;;;;;5492733;26;19928;-75
2024/04/17 04:54:47;;;;;;;;;;;;;;;;;;5493004;26;20356;-75
2024/04/17 04:57:13;;;;;;;;;;;;;;;;;;5493104;26;19928;-75
2024/04/17 04:59:39;;;;;;;;;;;;;;;;;;5492394;26;19928;-74
2024/04/17 05:02:05;;;;;;;;;;;;;;;;;;5491312;26;20024;-74
2024/04/17 05:04:31;;;;;;;;;;;;;;;;;;5493237;26;19935;-74
2024/04/17 05:06:57;;;;;;;;;;;;;;;;;;5492663;26;20257;-75
2024/04/17 05:09:23;;;;;;;;;;;;;;;;;;5493121;26;20000;-75
2024/04/17 05:11:49;;;;;;;;;;;;;;;;;;5492785;26;19927;-75
2024/04/17 05:14:15;;;;;;;;;;;;;;;;;;5492972;26;19928;-74
2024/04/17 05:16:41;;;;;;;;;;;;;;;;;;5493069;26;20004;-74
2024/04/17 05:19:07;;;;;;;;;;;;;;;;;;5492480;26;19944;-73
2024/04/17 05:21:33;;;;;;;;;;;;;;;;;;5492299;26;19934;-74
2024/04/17 05:23:59;;;;;;;;;;;;;;;;;;5491259;26;19928;-73
2024/04/17 05:26:25;;;;;;;;;;;;;;;;;;5492095;26;19928;-73
2024/04/17 05:28:51;;;;;;;;;;;;;;;;;;5485678;26;19935;-74
2024/04/17 05:31:17;;;;;;;;;;;;;;;;;;5481455;26;20317;-73
2024/04/17 05:33:43;;;;;;;;;;;;;;;;;;5472153;26;20007;-74
2024/04/17 05:36:09;;;;;;;;;;;;;;;;;;5456102;26;19936;-74
2024/04/17 05:38:34;;;;;;;;;;;;;;;;;;5491628;26;19936;-75
2024/04/17 05:41:00;;;;;;;;;;;;;;;;;;5491765;26;19956;-76
2024/04/17 05:43:26;;;;;;;;;;;;;;;;;;5490808;26;19998;-76
2024/04/17 05:45:52;;;;;;;;;;;;;;;;;;5492056;26;19928;-75
2024/04/17 05:48:18;;;;;;;;;;;;;;;;;;5491692;26;20004;-75
2024/04/17 05:50:44;;;;;;;;;;;;;;;;;;5486842;26;19927;-74
2024/04/17 05:53:10;;;;;;;;;;;;;;;;;;5487300;26;20420;-75
2024/04/17 05:55:38;;;;;;;;;;;;;;;;;;5487727;26;20382;-75
2024/04/17 05:58:04;;;;;;;;;;;;;;;;;;5488679;26;19936;-74
2024/04/17 06:00:30;;;;;;;;;;;;;;;;;;5488417;26;19936;-74
2024/04/17 06:02:56;;;;;;;;;;;;;;;;;;5486323;26;20352;-74
2024/04/17 06:05:22;;;;;;;;;;;;;;;;;;5488747;26;19936;-75
2024/04/17 06:07:48;;;;;;;;;;;;;;;;;;5491704;26;19935;-73
2024/04/17 06:10:14;;;;;;;;;;;;;;;;;;5489538;26;19927;-74
2024/04/17 06:12:40;;;;;;;;;;;;;;;;;;5489358;26;19928;-75
2024/04/17 06:15:06;;;;;;;;;;;;;;;;;;5489174;26;20213;-75
2024/04/17 06:17:32;;;;;;;;;;;;;;;;;;5487845;26;20000;-75
2024/04/17 06:19:58;;;;;;;;;;;;;;;;;;5467908;26;19997;-76
2024/04/17 06:22:24;;;;;;;;;;;;;;;;;;5451323;26;20254;-73
2024/04/17 06:24:50;;;;;;;;;;;;;;;;;;5449848;26;19936;-74
2024/04/17 06:27:16;;;;;;;;;;;;;;;;;;5453430;26;19935;-73
2024/04/17 06:29:42;;;;;;;;;;;;;;;;;;5449941;26;19932;-73
2024/04/17 06:32:08;;;;;;;;;;;;;;;;;;5447431;26;19929;-74
2024/04/17 06:34:34;;;;;;;;;;;;;;;;;;5448954;26;19940;-74
2024/04/17 06:37:00;;;;;;;;;;;;;;;;;;5448158;26;19929;-76
2024/04/17 06:39:26;;;;;;;;;;;;;;;;;;5447065;26;19943;-76
2024/04/17 06:41:52;;;;;;;;;;;;;;;;;;5448532;26;19936;-74
2024/04/17 06:44:18;;;;;;;;;;;;;;;;;;5444224;26;19961;-75
2024/04/17 06:46:44;;;;;;;;;;;;;;;;;;5445617;26;19928;-75
2024/04/17 06:49:12;;;;;;;;;;;;;;;;;;5445305;26;20409;-75
2024/04/17 06:53:03;;;;;;;;;;;;;;;;;;5493328;25;19935;-74
2024/04/17 06:55:29;;;;;;;;;;;;;;;;;;5501045;26;19928;-75
2024/04/17 06:57:55;;;;;;;;;;;;;;;;;;5428148;26;19929;-71
2024/04/17 07:01:32;;;;;;;;;;;;;;;;;;5472191;26;20241;-72
2024/04/17 07:04:40;;;;;;;;;;;;;;;;;;5620915;25;19926;-72
2024/04/17 07:07:06;;;;;;;;;;;;;;;;;;5622252;25;19971;-70
2024/04/17 07:10:16;;;;;;;;;;;;;;;;;;5472207;26;19935;-71
2024/04/17 07:12:41;;;;;;;;;;;;;;;;;;5468900;26;19928;-70
2024/04/17 07:15:09;;;;;;;;;;;;;;;;;;5451519;26;19929;-69
2024/04/17 07:17:34;;;;;;;;;;;;;;;;;;5434697;26;19929;-69
2024/04/17 07:20:00;;;;;;;;;;;;;;;;;;5441382;26;19939;-71
2024/04/17 07:22:26;;;;;;;;;;;;;;;;;;5451722;26;19929;-71
2024/04/17 07:24:52;;;;;;;;;;;;;;;;;;5455761;26;19929;-69
2024/04/17 07:27:18;;;;;;;;;;;;;;;;;;5440902;26;19956;-70
2024/04/17 07:29:45;;;;;;;;;;;;;;;;;;5434132;26;20556;-69
2024/04/17 07:32:11;;;;;;;;;;;;;;;;;;5465397;26;19935;-69
2024/04/17 07:34:36;;;;;;;;;;;;;;;;;;5452977;26;20272;-70
2024/04/17 07:38:16;;;;;;;;;;;;;;;;;;5487676;25;19936;-69
2024/04/17 07:40:42;;;;;;;;;;;;;;;;;;5480999;26;19929;-68
2024/04/17 07:43:08;;;;;;;;;;;;;;;;;;5481335;26;19947;-72
2024/04/17 07:45:34;;;;;;;;;;;;;;;;;;5476362;26;19936;-68
2024/04/17 07:48:00;;;;;;;;;;;;;;;;;;5505859;26;19928;-70
2024/04/17 07:50:26;;;;;;;;;;;;;;;;;;5444086;26;19982;-70
2024/04/17 07:52:52;;;;;;;;;;;;;;;;;;5470178;26;19928;-69
2024/04/17 07:55:18;;;;;;;;;;;;;;;;;;5482039;26;19928;-70
2024/04/17 07:57:44;;;;;;;;;;;;;;;;;;5481246;26;19943;-69
2024/04/17 08:00:10;;;;;;;;;;;;;;;;;;5445447;26;20041;-69
2024/04/17 08:02:36;;;;;;;;;;;;;;;;;;5446466;26;19929;-70
2024/04/17 08:05:02;;;;;;;;;;;;;;;;;;5463801;26;19938;-70
2024/04/17 08:07:28;;;;;;;;;;;;;;;;;;5470097;26;19929;-70
2024/04/17 08:09:54;;;;;;;;;;;;;;;;;;5476325;26;19936;-70
2024/04/17 08:12:20;;;;;;;;;;;;;;;;;;5451006;26;19929;-72
2024/04/17 08:14:46;;;;;;;;;;;;;;;;;;5456800;26;19928;-70
2024/04/17 08:17:12;;;;;;;;;;;;;;;;;;5444201;26;19937;-69
2024/04/17 08:20:06;;;;;;;;;;;;;;;;;;5616796;25;19934;-69
2024/04/17 08:24:47;;;;;;;;;;;;;;;;;;5462064;26;20372;-69
2024/04/17 08:27:13;;;;;;;;;;;;;;;;;;5439998;26;19929;-69
2024/04/17 08:29:39;;;;;;;;;;;;;;;;;;5430023;26;19940;-69
2024/04/17 08:32:05;;;;;;;;;;;;;;;;;;5430447;26;19956;-68
2024/04/17 08:35:56;;;;;;;;;;;;;;;;;;5617197;25;19933;-69
2024/04/17 08:38:22;;;;;;;;;;;;;;;;;;5621029;25;19926;-69
2024/04/17 08:40:48;;;;;;;;;;;;;;;;;;5621618;25;20379;-69
2024/04/17 08:43:49;;;;;;;;;;;;;;;;;;5617777;25;19926;-69
2024/04/17 08:46:15;;;;;;;;;;;;;;;;;;5620793;25;19932;-70
2024/04/17 08:48:51;;;;;;;;;;;;;;;;;;5582703;25;19927;-69
2024/04/17 08:51:17;;;;;;;;;;;;;;;;;;5582706;25;19933;-69
2024/04/17 08:54:12;;;;;;;;;;;;;;;;;;5620791;25;19933;-69
2024/04/17 08:56:38;;;;;;;;;;;;;;;;;;5618005;25;19926;-69
2024/04/17 09:00:29;;;;;;;;;;;;;;;;;;5620013;25;19926;-68
2024/04/17 09:02:55;;;;;;;;;;;;;;;;;;5621470;25;19926;-68
2024/04/17 09:05:21;;;;;;;;;;;;;;;;;;5609003;25;19933;-70
2024/04/17 09:07:47;;;;;;;;;;;;;;;;;;5658641;25;20304;-67
2024/04/17 09:10:13;;;;;;;;;;;;;;;;;;5591692;25;19935;-68
2024/04/17 09:12:44;;;;;;;;;;;;;;;;;;5580434;25;19934;-67
2024/04/17 09:15:10;;;;;;;;;;;;;;;;;;5582837;25;19937;-66
2024/04/17 09:17:36;;;;;;;;;;;;;;;;;;5582998;25;19927;-67
2024/04/17 09:22:26;;;;;;;;;;;;;;;;;;5616095;25;19990;-67
2024/04/17 09:24:52;;;;;;;;;;;;;;;;;;5586175;25;19932;-67
2024/04/17 09:27:18;;;;;;;;;;;;;;;;;;5582197;25;19927;-67
2024/04/17 09:32:14;;;;;;;;;;;;;;;;;;5602723;25;19948;-65
2024/04/17 09:34:40;;;;;;;;;;;;;;;;;;5616231;25;19934;-69
2024/04/17 09:37:06;;;;;;;;;;;;;;;;;;5586169;25;19926;-68
2024/04/17 09:39:32;;;;;;;;;;;;;;;;;;5616836;25;19927;-69
2024/04/17 09:41:58;;;;;;;;;;;;;;;;;;5614892;25;19934;-68
2024/04/17 09:44:24;;;;;;;;;;;;;;;;;;5579191;25;19926;-69
2024/04/17 09:46:50;;;;;;;;;;;;;;;;;;5581463;25;19933;-67
2024/04/17 09:49:16;;;;;;;;;;;;;;;;;;5582619;25;19926;-68
2024/04/17 09:51:42;;;;;;;;;;;;;;;;;;5581601;25;19926;-68
2024/04/17 09:54:08;;;;;;;;;;;;;;;;;;5615750;25;19937;-68
2024/04/17 09:58:48;;;;;;;;;;;;;;;;;;5579451;25;19937;-69
2024/04/17 10:01:14;;;;;;;;;;;;;;;;;;5547201;25;19927;-70
2024/04/17 10:03:41;;;;;;;;;;;;;;;;;;5581473;25;19926;-68
2024/04/17 10:06:07;;;;;;;;;;;;;;;;;;5543114;25;19926;-71
2024/04/17 10:08:33;;;;;;;;;;;;;;;;;;5580379;25;19934;-70
2024/04/17 10:10:59;;;;;;;;;;;;;;;;;;5582511;25;19939;-72
2024/04/17 10:13:25;;;;;;;;;;;;;;;;;;5578310;25;20261;-72
2024/04/17 10:15:51;;;;;;;;;;;;;;;;;;5580539;25;19927;-71
2024/04/17 10:18:17;;;;;;;;;;;;;;;;;;5581838;25;19943;-70
2024/04/17 10:20:43;;;;;;;;;;;;;;;;;;5582467;25;19934;-69
2024/04/17 10:25:20;;;;;;;;;;;;;;;;;;5620983;25;19933;-69
2024/04/17 10:27:46;;;;;;;;;;;;;;;;;;5621620;25;19927;-68
2024/04/17 10:30:12;;;;;;;;;;;;;;;;;;5620600;25;19930;-69
2024/04/17 10:32:38;;;;;;;;;;;;;;;;;;5582810;25;20255;-71
2024/04/17 10:37:39;;;;;;;;;;;;;;;;;;5542062;25;20743;-69
2024/04/17 10:40:05;;;;;;;;;;;;;;;;;;5517123;25;19935;-69
2024/04/17 10:42:31;;;;;;;;;;;;;;;;;;5504161;25;19932;-70
2024/04/17 10:44:57;;;;;;;;;;;;;;;;;;5506127;25;20368;-68
2024/04/17 10:47:24;;;;;;;;;;;;;;;;;;5504680;25;19934;-70
2024/04/17 10:49:50;;;;;;;;;;;;;;;;;;5503588;25;19928;-68
2024/04/17 10:52:15;;;;;;;;;;;;;;;;;;5507767;25;19935;-67
2024/04/17 10:56:50;;;;;;;;;;;;;;;;;;5578843;25;20292;-68
2024/04/17 11:01:20;;;;;;;;;;;;;;;;;;5491985;25;19928;-67
2024/04/17 11:03:46;;;;;;;;;;;;;;;;;;5467346;26;19944;-67
2024/04/17 11:06:12;;;;;;;;;;;;;;;;;;5467987;26;19929;-67
2024/04/17 11:11:12;;;;;;;;;;;;;;;;;;5467463;26;19935;-67
2024/04/17 11:13:38;;;;;;;;;;;;;;;;;;5465399;26;19928;-67
2024/04/17 11:16:04;;;;;;;;;;;;;;;;;;5467835;26;19954;-68
2024/04/17 11:20:48;;;;;;;;;;;;;;;;;;5617071;25;19933;-67
2024/04/17 11:23:14;;;;;;;;;;;;;;;;;;5617746;25;19926;-67
2024/04/17 11:25:40;;;;;;;;;;;;;;;;;;5583233;25;19938;-67
2024/04/17 11:30:39;;;;;;;;;;;;;;;;;;5613570;25;19926;-67
2024/04/17 11:39:04;;;;;;;;;;;;;;;;;;5500828;25;19928;-67
2024/04/17 11:41:57;;;;;;;;;;;;;;;;;;5579807;25;20355;-68
2024/04/17 11:46:30;;;;;;;;;;;;;;;;;;5617246;25;19927;-70
2024/04/17 11:49:44;;;;;;;;;;;;;;;;;;5543407;25;19928;-67
2024/04/17 11:52:12;;;;;;;;;;;;;;;;;;5511418;25;19933;-68
2024/04/17 11:54:38;;;;;;;;;;;;;;;;;;5511375;25;19931;-68
2024/04/17 11:57:05;;;;;;;;;;;;;;;;;;5544873;25;19996;-67
2024/04/17 11:59:31;;;;;;;;;;;;;;;;;;5545426;25;19928;-68
2024/04/17 12:01:57;;;;;;;;;;;;;;;;;;5542619;25;20378;-67
2024/04/17 12:04:27;;;;;;;;;;;;;;;;;;5543796;25;20057;-67
2024/04/17 12:06:53;;;;;;;;;;;;;;;;;;5507726;25;19933;-68
2024/04/17 12:09:19;;;;;;;;;;;;;;;;;;5542103;25;19927;-69
2024/04/17 12:11:45;;;;;;;;;;;;;;;;;;5541781;25;20040;-68
2024/04/17 12:14:11;;;;;;;;;;;;;;;;;;5541248;25;19927;-68
2024/04/17 12:16:37;;;;;;;;;;;;;;;;;;5541667;25;19928;-68
2024/04/17 12:19:03;;;;;;;;;;;;;;;;;;5540313;25;19973;-68
2024/04/17 12:21:29;;;;;;;;;;;;;;;;;;5544440;25;20368;-68
2024/04/17 12:23:55;;;;;;;;;;;;;;;;;;5512540;25;20256;-67
2024/04/17 12:29:06;;;;;;;;;;;;;;;;;;5536512;25;19930;-68
2024/04/17 12:31:32;;;;;;;;;;;;;;;;;;5539232;25;19939;-67
2024/04/17 12:36:30;;;;;;;;;;;;;;;;;;5575748;25;19934;-71
2024/04/17 12:38:56;;;;;;;;;;;;;;;;;;5575929;25;19933;-72
2024/04/17 12:41:57;;;;;;;;;;;;;;;;;;5469108;26;19928;-71
2024/04/17 12:45:39;;;;;;;;;;;;;;;;;;5582576;25;19927;-72
2024/04/17 12:48:05;;;;;;;;;;;;;;;;;;5580018;25;20355;-72
2024/04/17 12:50:31;;;;;;;;;;;;;;;;;;5579565;25;19926;-72
2024/04/17 12:52:57;;;;;;;;;;;;;;;;;;5580170;25;19927;-71
2024/04/17 12:55:23;;;;;;;;;;;;;;;;;;5579839;25;19938;-71
2024/04/17 12:57:49;;;;;;;;;;;;;;;;;;5546000;25;20038;-71
2024/04/17 13:02:46;;;;;;;;;;;;;;;;;;5583910;25;20270;-71
2024/04/17 13:06:00;;;;;;;;;;;;;;;;;;5361851;26;19930;-71
2024/04/17 13:08:26;;;;;;;;;;;;;;;;;;5361121;26;20000;-71
2024/04/17 13:13:52;;;;;;;;;;;;;;;;;;5581350;25;19927;-71
2024/04/17 13:16:18;;;;;;;;;;;;;;;;;;5550196;25;19927;-71
2024/04/17 13:18:45;;;;;;;;;;;;;;;;;;5580873;25;19927;-71
2024/04/17 13:21:11;;;;;;;;;;;;;;;;;;5582601;25;19934;-71
2024/04/17 13:26:08;;;;;;;;;;;;;;;;;;5617488;25;19933;-70
2024/04/17 13:28:34;;;;;;;;;;;;;;;;;;5580103;25;20266;-71
2024/04/17 13:31:01;;;;;;;;;;;;;;;;;;5618494;25;20002;-70
2024/04/17 13:37:39;;;;;;;;;;;;;;;;;;5549499;25;19935;-71
2024/04/17 13:40:05;;;;;;;;;;;;;;;;;;5544134;25;19935;-72
2024/04/17 13:42:31;;;;;;;;;;;;;;;;;;5506184;25;19939;-71
2024/04/17 13:44:57;;;;;;;;;;;;;;;;;;5511093;25;20387;-71
2024/04/17 13:47:23;;;;;;;;;;;;;;;;;;5511507;25;19932;-73
2024/04/17 13:49:50;;;;;;;;;;;;;;;;;;5544675;25;19935;-69
2024/04/17 13:52:16;;;;;;;;;;;;;;;;;;5511471;25;20286;-71
2024/04/17 13:54:42;;;;;;;;;;;;;;;;;;5544755;25;19928;-71
2024/04/17 13:57:07;;;;;;;;;;;;;;;;;;5544161;25;20443;-70
2024/04/17 13:59:33;;;;;;;;;;;;;;;;;;5544742;25;19939;-71
2024/04/17 14:01:59;;;;;;;;;;;;;;;;;;5545085;25;19927;-70
2024/04/17 14:04:25;;;;;;;;;;;;;;;;;;5511319;25;19927;-71
2024/04/17 14:06:51;;;;;;;;;;;;;;;;;;5510932;25;19927;-71
2024/04/17 14:09:17;;;;;;;;;;;;;;;;;;5544344;25;19927;-71
2024/04/17 14:11:43;;;;;;;;;;;;;;;;;;5542578;25;19928;-71
2024/04/17 14:14:10;;;;;;;;;;;;;;;;;;5544413;25;19938;-72
2024/04/17 14:16:36;;;;;;;;;;;;;;;;;;5512480;25;19934;-72
2024/04/17 14:19:02;;;;;;;;;;;;;;;;;;5544440;25;19927;-72
2024/04/17 14:21:28;;;;;;;;;;;;;;;;;;5545266;25;19938;-72
2024/04/17 14:23:54;;;;;;;;;;;;;;;;;;5545560;25;19995;-70
2024/04/17 14:26:24;;;;;;;;;;;;;;;;;;5536306;25;19939;-70
2024/04/17 14:28:50;;;;;;;;;;;;;;;;;;5536217;25;20352;-72
2024/04/17 14:31:16;;;;;;;;;;;;;;;;;;5503819;25;19995;-70
2024/04/17 14:33:42;;;;;;;;;;;;;;;;;;5503728;25;19927;-70
2024/04/17 14:36:08;;;;;;;;;;;;;;;;;;5541076;25;19934;-71
2024/04/17 14:38:37;;;;;;;;;;;;;;;;;;5545330;25;19927;-71
2024/04/17 14:41:07;;;;;;;;;;;;;;;;;;5544832;25;19928;-70
2024/04/17 14:43:33;;;;;;;;;;;;;;;;;;5544701;25;20541;-71
2024/04/17 14:45:59;;;;;;;;;;;;;;;;;;5545062;25;19938;-72
2024/04/17 14:48:25;;;;;;;;;;;;;;;;;;5498869;26;20343;-72
2024/04/17 14:50:50;;;;;;;;;;;;;;;;;;5496043;26;20397;-72
2024/04/17 14:53:16;;;;;;;;;;;;;;;;;;5529399;26;19934;-72
2024/04/17 14:55:42;;;;;;;;;;;;;;;;;;5526249;26;19927;-71
2024/04/17 14:58:08;;;;;;;;;;;;;;;;;;5524741;26;19927;-72
2024/04/17 15:00:35;;;;;;;;;;;;;;;;;;5525673;26;19927;-72
2024/04/17 15:03:01;;;;;;;;;;;;;;;;;;5524880;26;19928;-71
2024/04/17 15:05:27;;;;;;;;;;;;;;;;;;5524966;26;20351;-70
2024/04/17 15:07:53;;;;;;;;;;;;;;;;;;5492746;26;19932;-72
2024/04/17 15:10:19;;;;;;;;;;;;;;;;;;5526100;26;19935;-72
2024/04/17 15:12:47;;;;;;;;;;;;;;;;;;5528607;26;20351;-72
2024/04/17 15:15:13;;;;;;;;;;;;;;;;;;5528823;26;20253;-72
2024/04/17 15:17:39;;;;;;;;;;;;;;;;;;5528703;26;19938;-72
2024/04/17 15:20:05;;;;;;;;;;;;;;;;;;5529268;26;20362;-73
2024/04/17 15:22:30;;;;;;;;;;;;;;;;;;5496352;26;19940;-72
2024/04/17 15:24:57;;;;;;;;;;;;;;;;;;5495817;26;19960;-72
2024/04/17 15:27:23;;;;;;;;;;;;;;;;;;5529034;26;19935;-72
2024/04/17 15:29:49;;;;;;;;;;;;;;;;;;5528889;26;19927;-72
2024/04/17 15:32:17;;;;;;;;;;;;;;;;;;5528700;26;19927;-72
2024/04/17 15:34:43;;;;;;;;;;;;;;;;;;5496072;26;19927;-71
2024/04/17 15:37:10;;;;;;;;;;;;;;;;;;5528883;26;20263;-71
2024/04/17 15:39:36;;;;;;;;;;;;;;;;;;5529033;26;19927;-71
2024/04/17 15:42:02;;;;;;;;;;;;;;;;;;5529213;26;20263;-72
2024/04/17 15:44:28;;;;;;;;;;;;;;;;;;5528376;26;19935;-72
2024/04/17 15:46:54;;;;;;;;;;;;;;;;;;5492654;26;19928;-72
2024/04/17 15:49:20;;;;;;;;;;;;;;;;;;5495160;26;19927;-72
2024/04/17 15:51:47;;;;;;;;;;;;;;;;;;5495894;26;19934;-72
2024/04/17 15:54:13;;;;;;;;;;;;;;;;;;5496408;26;19935;-73
2024/04/17 15:56:38;;;;;;;;;;;;;;;;;;5528911;26;20000;-72
2024/04/17 15:59:04;;;;;;;;;;;;;;;;;;5525528;26;19928;-72
2024/04/17 16:01:30;;;;;;;;;;;;;;;;;;5527334;26;19927;-72
2024/04/17 16:03:56;;;;;;;;;;;;;;;;;;5495009;26;20348;-72
2024/04/17 16:06:22;;;;;;;;;;;;;;;;;;5494379;26;19939;-72
2024/04/17 16:08:49;;;;;;;;;;;;;;;;;;5495114;26;19928;-72
2024/04/17 16:11:15;;;;;;;;;;;;;;;;;;5528486;26;19968;-72
2024/04/17 16:13:42;;;;;;;;;;;;;;;;;;5528315;26;19928;-73
2024/04/17 16:16:09;;;;;;;;;;;;;;;;;;5528575;26;19942;-72
2024/04/17 16:18:35;;;;;;;;;;;;;;;;;;5528563;26;19928;-72
2024/04/17 16:21:01;;;;;;;;;;;;;;;;;;5528083;26;19955;-72
2024/04/17 16:23:33;;;;;;;;;;;;;;;;;;5528535;26;19934;-72
2024/04/17 16:25:59;;;;;;;;;;;;;;;;;;5528475;26;19935;-71
2024/04/17 16:28:25;;;;;;;;;;;;;;;;;;5528088;26;19927;-71
2024/04/17 16:30:51;;;;;;;;;;;;;;;;;;5528544;26;19931;-71
2024/04/17 16:33:17;;;;;;;;;;;;;;;;;;5528300;26;19991;-72
2024/04/17 16:35:43;;;;;;;;;;;;;;;;;;5527526;26;20046;-73
2024/04/17 16:38:09;;;;;;;;;;;;;;;;;;5528322;26;19931;-73
2024/04/17 16:40:35;;;;;;;;;;;;;;;;;;5527798;26;20256;-72
2024/04/17 16:43:01;;;;;;;;;;;;;;;;;;5527682;26;19928;-74
2024/04/17 16:45:27;;;;;;;;;;;;;;;;;;5495882;26;19940;-73
2024/04/17 16:47:54;;;;;;;;;;;;;;;;;;5528233;26;19927;-72
2024/04/17 16:50:20;;;;;;;;;;;;;;;;;;5527578;26;19934;-72
2024/04/17 16:52:46;;;;;;;;;;;;;;;;;;5528127;26;20008;-72
2024/04/17 16:55:12;;;;;;;;;;;;;;;;;;5494744;26;19943;-73
2024/04/17 16:57:38;;;;;;;;;;;;;;;;;;5528249;26;19956;-73
2024/04/17 17:00:04;;;;;;;;;;;;;;;;;;5495399;26;19936;-72
2024/04/17 17:02:30;;;;;;;;;;;;;;;;;;5527372;26;19927;-72
2024/04/17 17:04:56;;;;;;;;;;;;;;;;;;5528104;26;19935;-72
2024/04/17 17:07:21;;;;;;;;;;;;;;;;;;5495238;26;19928;-73
2024/04/17 17:09:47;;;;;;;;;;;;;;;;;;5527285;26;19935;-71
2024/04/17 17:12:13;;;;;;;;;;;;;;;;;;5527263;26;20337;-72
2024/04/17 17:14:39;;;;;;;;;;;;;;;;;;5527801;26;19927;-72
2024/04/17 17:17:05;;;;;;;;;;;;;;;;;;5527319;26;20392;-73
2024/04/17 17:19:32;;;;;;;;;;;;;;;;;;5495037;26;19933;-72
2024/04/17 17:21:57;;;;;;;;;;;;;;;;;;5527763;26;19932;-72
2024/04/17 17:24:23;;;;;;;;;;;;;;;;;;5527294;26;20359;-72
2024/04/17 17:26:49;;;;;;;;;;;;;;;;;;5495155;26;19955;-72
2024/04/17 17:29:15;;;;;;;;;;;;;;;;;;5494990;26;19934;-72
2024/04/17 17:31:44;;;;;;;;;;;;;;;;;;5527075;26;19939;-73
2024/04/17 17:34:10;;;;;;;;;;;;;;;;;;5527503;26;19927;-72
2024/04/17 17:36:36;;;;;;;;;;;;;;;;;;5488535;26;20264;-73
2024/04/17 17:39:02;;;;;;;;;;;;;;;;;;5490082;26;19927;-73
2024/04/17 17:41:28;;;;;;;;;;;;;;;;;;5490490;26;20289;-73